Time;durP1;ratioP1;P1;durP2;ratioP2;P2;SDS_P1;SDS_P2;PMS_P1;PMS_P2;Temp;Humidity;BMP_temperature;BMP_pressure;BME280_temperature;BME280_humidity;BME280_pressure;Samples;Min_cycle;Max_cycle;Signal;HPM_P1;HPM_P2
2022/09/07 00:01:12;;;;;;;14.13;12.07;;;22.60;82.40;;;;;;5053336;28;20502;-71
2022/09/07 00:03:40;;;;;;;14.20;12.70;;;22.70;82.50;;;;;;5051585;28;20463;-71
2022/09/07 00:06:10;;;;;;;14.97;13.40;;;22.70;82.60;;;;;;5052715;28;20467;-72
2022/09/07 00:08:40;;;;;;;22.77;18.23;;;22.60;82.60;;;;;;5052725;28;20458;-71
2022/09/07 00:11:12;;;;;;;22.93;20.80;;;22.50;82.70;;;;;;5052706;28;20501;-72
2022/09/07 00:13:42;;;;;;;30.77;27.80;;;22.50;82.80;;;;;;5051578;28;20457;-70
2022/09/07 00:16:14;;;;;;;39.30;35.57;;;22.50;82.80;;;;;;5052047;28;20497;-72
2022/09/07 00:18:42;;;;;;;29.50;26.60;;;22.40;83.10;;;;;;5050069;28;20538;-71
2022/09/07 00:21:15;;;;;;;26.33;23.60;;;22.40;83.10;;;;;;5052850;28;20522;-71
2022/09/07 00:23:44;;;;;;;23.37;21.27;;;22.40;83.00;;;;;;5052053;28;20451;-73
2022/09/07 00:26:15;;;;;;;20.87;19.07;;;22.40;82.80;;;;;;5051605;28;20564;-71
2022/09/07 00:28:45;;;;;;;26.17;23.87;;;22.40;82.80;;;;;;5051764;28;20439;-71
2022/09/07 00:31:15;;;;;;;25.23;22.83;;;22.50;82.80;;;;;;5051676;28;20497;-71
2022/09/07 00:33:45;;;;;;;23.70;21.57;;;22.50;82.50;;;;;;5050498;28;20462;-71
2022/09/07 00:36:13;;;;;;;22.80;20.53;;;22.50;82.50;;;;;;5052760;28;21014;-71
2022/09/07 00:38:41;;;;;;;24.70;22.23;;;22.60;82.40;;;;;;5052063;28;20490;-71
2022/09/07 00:41:10;;;;;;;19.83;18.03;;;22.50;82.40;;;;;;5052405;28;20835;-71
2022/09/07 00:43:46;;;;;;;20.40;18.60;;;22.50;82.50;;;;;;5051476;28;20863;-71
2022/09/07 00:46:17;;;;;;;18.37;16.50;;;22.50;82.70;;;;;;5052148;28;20471;-72
2022/09/07 00:48:51;;;;;;;16.90;15.30;;;22.50;82.40;;;;;;5050897;28;20493;-71
2022/09/07 00:51:25;;;;;;;16.47;14.93;;;22.50;82.40;;;;;;5047260;28;20458;-71
2022/09/07 00:53:58;;;;;;;16.47;13.87;;;22.60;82.30;;;;;;5050211;28;21087;-72
2022/09/07 00:56:29;;;;;;;15.80;13.93;;;22.60;82.20;;;;;;5050956;28;20466;-71
2022/09/07 00:58:59;;;;;;;13.33;12.13;;;22.60;82.20;;;;;;5052297;28;20481;-71
2022/09/07 01:01:28;;;;;;;15.73;13.03;;;22.70;82.30;;;;;;5050988;28;20442;-71
2022/09/07 01:03:58;;;;;;;13.53;11.93;;;22.60;82.10;;;;;;5048534;28;20492;-71
2022/09/07 01:06:29;;;;;;;17.50;11.33;;;22.60;82.00;;;;;;5049968;28;21007;-71
2022/09/07 01:09:02;;;;;;;11.77;10.67;;;22.70;82.00;;;;;;5051542;28;20513;-72
2022/09/07 01:11:32;;;;;;;13.53;11.97;;;22.70;81.90;;;;;;5050116;28;20520;-72
2022/09/07 01:14:04;;;;;;;12.70;11.40;;;22.70;81.80;;;;;;5047115;28;20483;-71
2022/09/07 01:16:48;;;;;;;12.27;11.03;;;22.70;81.80;;;;;;5050358;28;20482;-71
2022/09/07 01:19:43;;;;;;;11.73;10.67;;;22.70;81.80;;;;;;5051161;28;20438;-72
2022/09/07 01:22:29;;;;;;;11.50;10.50;;;22.80;81.70;;;;;;5048352;28;20483;-71
2022/09/07 01:25:05;;;;;;;12.47;11.17;;;22.70;81.60;;;;;;5050328;28;20464;-72
2022/09/07 01:28:03;;;;;;;15.73;13.30;;;22.70;81.90;;;;;;5050638;28;20505;-71
2022/09/07 01:30:35;;;;;;;11.37;10.13;;;22.60;82.00;;;;;;5051275;28;20975;-71
2022/09/07 01:33:17;;;;;;;10.77;9.80;;;22.60;81.90;;;;;;5050288;28;20521;-71
2022/09/07 01:35:52;;;;;;;11.73;10.50;;;22.60;81.90;;;;;;5047953;28;20439;-71
2022/09/07 01:38:30;;;;;;;13.00;10.40;;;22.60;81.80;;;;;;5051762;28;20474;-72
2022/09/07 01:41:06;;;;;;;11.07;9.97;;;22.60;81.90;;;;;;5051640;28;20435;-72
2022/09/07 01:43:43;;;;;;;15.43;10.20;;;22.60;81.90;;;;;;5055214;28;20507;-72
2022/09/07 01:46:25;;;;;;;10.80;9.80;;;22.50;82.00;;;;;;5052488;28;20478;-71
2022/09/07 01:48:55;;;;;;;13.73;10.70;;;22.60;81.90;;;;;;5051782;28;20893;-71
2022/09/07 01:51:29;;;;;;;11.23;10.03;;;22.60;81.80;;;;;;5055253;28;20442;-71
2022/09/07 01:54:02;;;;;;;13.70;12.30;;;22.50;81.80;;;;;;5053949;28;20455;-71
2022/09/07 01:56:34;;;;;;;14.27;11.67;;;22.50;81.90;;;;;;5054827;28;20501;-71
2022/09/07 01:59:09;;;;;;;15.00;11.30;;;22.40;81.70;;;;;;5054664;28;20831;-71
2022/09/07 02:01:43;;;;;;;11.30;10.17;;;22.10;82.30;;;;;;5054906;28;20485;-71
2022/09/07 02:04:16;;;;;;;11.87;10.73;;;22.00;82.30;;;;;;5050140;28;20575;-71
2022/09/07 02:06:49;;;;;;;13.03;11.73;;;21.90;82.80;;;;;;5055036;28;20470;-71
2022/09/07 02:09:23;;;;;;;11.87;10.47;;;21.80;82.90;;;;;;5055321;28;20425;-71
2022/09/07 02:11:51;;;;;;;12.83;10.93;;;21.80;83.00;;;;;;5052959;28;20530;-71
2022/09/07 02:14:25;;;;;;;13.83;11.67;;;21.90;83.00;;;;;;5054909;28;20465;-72
2022/09/07 02:16:58;;;;;;;13.40;10.67;;;22.00;82.70;;;;;;5054674;28;20462;-72
2022/09/07 02:19:32;;;;;;;12.30;11.27;;;22.00;82.90;;;;;;5054506;28;21023;-71
2022/09/07 02:22:05;;;;;;;13.23;11.60;;;22.00;82.70;;;;;;5054656;28;20425;-71
2022/09/07 02:24:37;;;;;;;12.27;10.87;;;22.00;82.80;;;;;;5054822;28;20462;-71
2022/09/07 02:27:12;;;;;;;10.87;9.97;;;22.00;82.90;;;;;;5054637;28;20498;-71
2022/09/07 02:29:43;;;;;;;14.40;10.17;;;22.00;82.70;;;;;;5054706;28;20453;-71
2022/09/07 02:32:11;;;;;;;10.70;9.80;;;22.00;82.70;;;;;;5053081;28;20489;-71
2022/09/07 02:34:39;;;;;;;11.90;9.00;;;22.00;82.60;;;;;;5054266;28;20451;-73
2022/09/07 02:37:09;;;;;;;9.67;8.80;;;22.10;82.40;;;;;;5054256;28;20933;-72
2022/09/07 02:39:37;;;;;;;11.60;9.50;;;22.10;82.20;;;;;;5054862;28;20477;-71
2022/09/07 02:42:06;;;;;;;10.07;9.07;;;22.10;82.20;;;;;;5054009;28;20466;-71
2022/09/07 02:44:38;;;;;;;10.33;9.43;;;22.10;82.40;;;;;;5054544;28;20488;-71
2022/09/07 02:47:26;;;;;;;10.37;9.20;;;22.00;82.50;;;;;;5053653;28;20477;-71
2022/09/07 02:50:12;;;;;;;9.57;8.67;;;22.00;82.70;;;;;;5034256;28;20826;-72
2022/09/07 02:52:52;;;;;;;10.20;9.20;;;21.90;82.60;;;;;;5040648;28;20520;-71
2022/09/07 02:55:31;;;;;;;9.57;8.67;;;21.90;82.60;;;;;;5046239;28;20963;-72
2022/09/07 02:58:12;;;;;;;12.43;9.80;;;21.80;82.70;;;;;;5045455;28;20470;-71
2022/09/07 03:00:50;;;;;;;9.07;8.13;;;21.90;82.60;;;;;;5054038;28;20453;-71
2022/09/07 03:03:26;;;;;;;9.80;8.90;;;21.90;82.50;;;;;;5053467;28;20856;-72
2022/09/07 03:05:59;;;;;;;10.50;9.50;;;21.70;82.70;;;;;;5050765;28;20457;-71
2022/09/07 03:08:32;;;;;;;12.17;11.00;;;21.60;83.50;;;;;;5053557;28;20477;-72
2022/09/07 03:11:01;;;;;;;11.77;10.73;;;21.40;84.20;;;;;;5054255;28;20426;-72
2022/09/07 03:13:32;;;;;;;11.67;10.47;;;21.20;85.00;;;;;;5052796;28;20505;-74
2022/09/07 03:16:00;;;;;;;24.07;21.87;;;21.30;85.00;;;;;;5053552;28;21004;-71
2022/09/07 03:18:30;;;;;;;47.23;43.07;;;21.30;85.00;;;;;;5053349;28;20532;-71
2022/09/07 03:20:59;;;;;;;30.80;28.13;;;21.30;84.90;;;;;;5053338;28;20780;-71
2022/09/07 03:23:27;;;;;;;24.40;22.10;;;21.30;84.70;;;;;;5053473;28;20426;-71
2022/09/07 03:25:55;;;;;;;19.50;17.70;;;21.40;84.50;;;;;;5051404;28;20874;-71
2022/09/07 03:28:23;;;;;;;15.90;14.50;;;21.40;84.20;;;;;;5054133;28;20614;-71
2022/09/07 03:30:52;;;;;;;13.53;12.20;;;21.50;84.20;;;;;;5053410;28;20449;-72
2022/09/07 03:33:20;;;;;;;13.97;10.87;;;21.50;83.80;;;;;;5053178;28;20488;-72
2022/09/07 03:35:59;;;;;;;14.03;12.67;;;21.40;83.80;;;;;;5052350;28;20477;-71
2022/09/07 03:38:27;;;;;;;16.10;14.60;;;21.40;84.20;;;;;;5053203;28;20433;-71
2022/09/07 03:41:00;;;;;;;18.47;16.33;;;21.20;84.30;;;;;;5052372;28;20525;-71
2022/09/07 03:43:29;;;;;;;15.30;13.80;;;21.00;84.90;;;;;;5053217;28;20450;-71
2022/09/07 03:45:59;;;;;;;17.87;16.30;;;21.00;85.30;;;;;;5051015;28;20506;-72
2022/09/07 03:48:27;;;;;;;15.07;13.53;;;20.90;85.60;;;;;;5052960;28;20478;-71
2022/09/07 03:50:58;;;;;;;11.07;10.00;;;21.10;85.40;;;;;;5049493;28;20461;-71
2022/09/07 03:53:26;;;;;;;10.07;9.07;;;21.30;84.80;;;;;;5052445;28;20453;-72
2022/09/07 03:55:59;;;;;;;12.07;10.87;;;21.50;84.10;;;;;;5051221;28;20461;-72
2022/09/07 03:58:29;;;;;;;10.23;9.33;;;21.70;83.10;;;;;;5051477;28;20454;-71
2022/09/07 04:00:59;;;;;;;11.80;9.77;;;21.80;82.80;;;;;;5052231;28;20539;-72
2022/09/07 04:03:28;;;;;;;10.30;8.90;;;21.80;82.80;;;;;;5047310;28;20553;-72
2022/09/07 04:05:59;;;;;;;11.33;9.43;;;21.80;82.70;;;;;;5046945;28;20491;-71
2022/09/07 04:08:28;;;;;;;9.53;8.53;;;21.70;83.00;;;;;;5052672;28;20481;-72
2022/09/07 04:10:58;;;;;;;9.80;8.80;;;21.60;83.30;;;;;;5052199;28;20449;-71
2022/09/07 04:13:27;;;;;;;9.47;8.60;;;21.60;83.30;;;;;;5050882;28;20467;-72
2022/09/07 04:15:56;;;;;;;11.40;10.23;;;21.60;83.50;;;;;;5050177;28;20453;-70
2022/09/07 04:18:25;;;;;;;14.70;11.70;;;21.50;83.40;;;;;;5051790;28;20452;-71
2022/09/07 04:20:53;;;;;;;18.23;13.13;;;21.50;83.60;;;;;;5052959;28;20446;-71
2022/09/07 04:23:23;;;;;;;17.10;12.93;;;21.40;83.80;;;;;;5052244;28;20917;-74
2022/09/07 04:25:52;;;;;;;14.23;11.50;;;21.30;83.90;;;;;;5051646;28;20465;-71
2022/09/07 04:28:21;;;;;;;13.00;11.50;;;21.40;83.80;;;;;;5051401;28;20565;-71
2022/09/07 04:30:49;;;;;;;14.43;12.00;;;21.40;83.50;;;;;;5051134;28;20481;-71
2022/09/07 04:33:17;;;;;;;15.37;13.80;;;21.40;83.70;;;;;;5051970;28;20533;-71
2022/09/07 04:35:46;;;;;;;12.83;11.63;;;21.40;83.70;;;;;;5051851;28;20460;-71
2022/09/07 04:38:15;;;;;;;12.20;10.93;;;21.40;83.90;;;;;;5052220;28;20444;-72
2022/09/07 04:40:45;;;;;;;13.47;11.10;;;21.40;83.90;;;;;;5051455;28;20475;-74
2022/09/07 04:43:13;;;;;;;14.50;11.47;;;21.50;83.80;;;;;;5052750;28;20951;-71
2022/09/07 04:45:41;;;;;;;16.57;14.87;;;21.40;83.90;;;;;;5050504;28;20998;-71
2022/09/07 04:48:10;;;;;;;18.50;16.80;;;21.30;84.40;;;;;;5051583;28;20480;-71
2022/09/07 04:50:38;;;;;;;11.73;10.53;;;21.20;85.00;;;;;;5051139;28;20822;-73
2022/09/07 04:53:06;;;;;;;11.17;10.00;;;21.20;85.40;;;;;;5042519;28;20493;-71
2022/09/07 04:55:34;;;;;;;12.43;9.23;;;21.20;85.60;;;;;;5045698;28;20455;-71
2022/09/07 04:58:04;;;;;;;11.17;9.97;;;21.20;85.60;;;;;;5051958;28;20461;-71
2022/09/07 05:00:32;;;;;;;11.37;9.80;;;21.20;85.90;;;;;;5049118;28;20469;-71
2022/09/07 05:03:00;;;;;;;10.30;9.27;;;21.20;86.00;;;;;;5051794;28;20456;-73
2022/09/07 05:05:29;;;;;;;10.50;9.20;;;21.20;86.10;;;;;;5050026;28;20456;-71
2022/09/07 05:07:57;;;;;;;11.10;9.10;;;21.40;85.60;;;;;;5047138;28;20520;-71
2022/09/07 05:10:25;;;;;;;11.27;9.93;;;21.40;85.50;;;;;;5050846;28;20449;-70
2022/09/07 05:12:53;;;;;;;9.67;8.67;;;21.50;85.40;;;;;;5051017;28;20511;-71
2022/09/07 05:15:23;;;;;;;7.53;6.83;;;21.50;85.20;;;;;;5051014;28;20480;-71
2022/09/07 05:17:51;;;;;;;8.37;6.57;;;21.70;84.80;;;;;;5051070;28;21014;-71
2022/09/07 05:20:20;;;;;;;8.30;7.23;;;21.80;84.00;;;;;;5054651;28;20501;-71
2022/09/07 05:22:49;;;;;;;9.70;6.63;;;22.10;83.10;;;;;;5048615;28;20497;-74
2022/09/07 05:25:17;;;;;;;8.50;5.97;;;22.30;82.70;;;;;;5051525;28;20459;-72
2022/09/07 05:27:45;;;;;;;9.10;7.10;;;22.50;82.60;;;;;;5052949;28;20532;-72
2022/09/07 05:30:14;;;;;;;9.37;8.30;;;22.50;82.40;;;;;;5052639;28;20476;-75
2022/09/07 05:33:06;;;;;;;10.50;7.67;;;22.60;82.00;;;;;;5047662;28;20558;-76
2022/09/07 05:35:35;;;;;;;8.50;6.83;;;22.70;82.00;;;;;;5049659;28;20467;-72
2022/09/07 05:38:04;;;;;;;8.47;6.07;;;22.80;81.60;;;;;;5051488;28;20490;-73
2022/09/07 05:40:33;;;;;;;9.10;8.23;;;22.70;81.50;;;;;;5053082;28;20466;-72
2022/09/07 05:43:09;;;;;;;9.17;8.27;;;22.60;81.50;;;;;;5052275;28;20470;-74
2022/09/07 05:45:37;;;;;;;10.93;9.20;;;22.50;81.80;;;;;;5052674;28;21062;-79
2022/09/07 05:48:07;;;;;;;13.30;10.43;;;22.50;82.30;;;;;;5049159;28;20546;-78
2022/09/07 05:50:35;;;;;;;14.13;9.80;;;22.60;81.90;;;;;;5049296;28;21031;-75
2022/09/07 05:53:04;;;;;;;15.83;14.33;;;22.60;81.70;;;;;;5054572;28;20945;-76
2022/09/07 05:55:32;;;;;;;14.10;11.97;;;22.60;81.60;;;;;;5054231;28;20505;-75
2022/09/07 05:58:00;;;;;;;16.23;12.10;;;22.50;82.00;;;;;;5053098;28;20540;-76
2022/09/07 06:00:28;;;;;;;13.03;11.27;;;22.40;82.20;;;;;;5060225;28;21005;-80
2022/09/07 06:02:57;;;;;;;13.30;10.87;;;22.20;83.10;;;;;;5048236;28;21020;-69
2022/09/07 06:05:26;;;;;;;11.40;10.27;;;22.00;83.50;;;;;;5049674;28;20499;-69
2022/09/07 06:07:55;;;;;;;11.50;10.40;;;21.90;84.10;;;;;;5048367;28;20842;-70
2022/09/07 06:10:25;;;;;;;11.80;10.60;;;21.90;84.50;;;;;;5053107;28;20475;-71
2022/09/07 06:13:13;;;;;;;11.53;10.27;;;21.90;84.40;;;;;;5052938;28;20456;-69
2022/09/07 06:15:41;;;;;;;15.27;11.70;;;21.80;84.60;;;;;;5046194;28;20465;-70
2022/09/07 06:18:09;;;;;;;11.60;9.00;;;21.70;84.80;;;;;;5053630;28;20551;-69
2022/09/07 06:20:39;;;;;;;12.13;10.93;;;21.80;84.60;;;;;;5052814;28;20459;-69
2022/09/07 06:23:07;;;;;;;11.13;9.57;;;22.00;84.10;;;;;;5051170;28;20539;-69
2022/09/07 06:25:36;;;;;;;10.97;9.87;;;22.20;83.50;;;;;;5052364;28;20497;-71
2022/09/07 06:28:04;;;;;;;13.53;10.93;;;22.30;83.10;;;;;;5052058;28;20454;-69
2022/09/07 06:30:32;;;;;;;10.30;9.30;;;22.30;82.70;;;;;;5045819;28;20528;-69
2022/09/07 06:33:01;;;;;;;10.20;9.03;;;22.30;83.10;;;;;;5048458;28;20941;-69
2022/09/07 06:35:29;;;;;;;13.43;10.30;;;22.40;82.80;;;;;;5052559;28;20470;-72
2022/09/07 06:37:58;;;;;;;9.10;8.20;;;22.60;82.50;;;;;;5054011;28;20485;-70
2022/09/07 06:40:27;;;;;;;11.03;10.10;;;22.70;82.00;;;;;;5054580;28;20448;-69
2022/09/07 06:42:55;;;;;;;11.00;9.90;;;22.70;81.90;;;;;;5053783;28;20945;-68
2022/09/07 06:45:23;;;;;;;12.30;11.00;;;22.70;81.80;;;;;;5049727;28;20439;-69
2022/09/07 06:47:53;;;;;;;20.80;18.40;;;22.70;81.90;;;;;;5047721;28;20458;-70
2022/09/07 06:50:22;;;;;;;30.20;27.33;;;22.70;81.80;;;;;;5049853;28;20571;-70
2022/09/07 06:52:50;;;;;;;28.47;25.87;;;22.50;82.10;;;;;;5047124;28;20467;-70
2022/09/07 06:55:44;;;;;;;26.87;24.23;;;22.20;83.40;;;;;;5048771;28;20558;-74
2022/09/07 06:58:12;;;;;;;22.30;20.20;;;22.10;84.00;;;;;;5051163;28;20830;-69
2022/09/07 07:00:41;;;;;;;24.07;22.17;;;22.20;83.60;;;;;;5053414;28;20462;-69
2022/09/07 07:03:09;;;;;;;11.80;8.67;;;22.20;83.50;;;;;;5048157;28;20450;-73
2022/09/07 07:05:37;;;;;;;19.43;17.73;;;22.10;83.80;;;;;;5044394;28;20459;-70
2022/09/07 07:08:05;;;;;;;13.87;12.50;;;22.10;83.90;;;;;;5048051;28;20524;-67
2022/09/07 07:10:39;;;;;;;16.53;14.13;;;22.20;83.50;;;;;;5053226;28;20479;-68
2022/09/07 07:13:08;;;;;;;13.20;12.10;;;22.20;83.70;;;;;;5052630;28;20509;-70
2022/09/07 07:15:37;;;;;;;18.93;17.23;;;22.10;84.10;;;;;;5050917;28;20465;-69
2022/09/07 07:18:05;;;;;;;27.83;25.30;;;22.30;83.70;;;;;;5047899;28;20464;-69
2022/09/07 07:20:48;;;;;;;16.70;15.23;;;22.30;83.50;;;;;;5051941;28;20557;-71
2022/09/07 07:23:16;;;;;;;12.13;11.03;;;22.30;83.70;;;;;;5053105;28;20945;-69
2022/09/07 07:25:44;;;;;;;9.60;8.37;;;22.30;83.50;;;;;;5048309;28;20503;-71
2022/09/07 07:28:14;;;;;;;9.03;8.23;;;22.20;84.00;;;;;;5052481;28;21030;-70
2022/09/07 07:31:06;;;;;;;9.40;8.13;;;22.20;84.10;;;;;;5049339;28;20577;-67
2022/09/07 07:33:39;;;;;;;12.10;9.30;;;22.30;84.00;;;;;;5048118;28;20445;-67
2022/09/07 07:36:10;;;;;;;7.73;5.57;;;22.40;83.50;;;;;;5051740;28;20458;-75
2022/09/07 07:38:38;;;;;;;6.43;5.40;;;22.70;82.70;;;;;;5043386;28;20451;-75
2022/09/07 07:41:30;;;;;;;4.97;4.47;;;23.00;81.60;;;;;;5052959;28;20919;-77
2022/09/07 07:44:19;;;;;;;5.93;5.40;;;23.40;80.40;;;;;;5046323;28;20464;-74
2022/09/07 07:46:48;;;;;;;5.87;5.27;;;23.80;79.20;;;;;;5051579;28;20539;-75
2022/09/07 07:49:17;;;;;;;5.90;5.33;;;24.00;78.40;;;;;;5051262;28;20472;-72
2022/09/07 07:51:45;;;;;;;3.80;3.50;;;24.30;77.60;;;;;;5049231;28;20503;-73
2022/09/07 07:54:35;;;;;;;5.73;4.93;;;24.40;77.00;;;;;;5048506;28;20828;-78
2022/09/07 07:57:04;;;;;;;3.90;3.60;;;24.60;76.60;;;;;;5052510;28;20461;-74
2022/09/07 07:59:34;;;;;;;4.13;3.83;;;24.70;76.10;;;;;;5050887;28;20452;-78
2022/09/07 08:02:03;;;;;;;5.10;3.50;;;24.90;75.80;;;;;;5048467;28;20456;-78
2022/09/07 08:04:33;;;;;;;4.37;4.03;;;25.00;75.50;;;;;;5052707;28;20469;-75
2022/09/07 08:07:02;;;;;;;8.13;4.53;;;25.00;75.20;;;;;;5052409;28;20475;-78
2022/09/07 08:09:38;;;;;;;5.00;3.80;;;25.10;75.00;;;;;;5047872;28;20525;-78
2022/09/07 08:12:11;;;;;;;4.87;4.37;;;25.20;74.90;;;;;;5053081;28;20469;-76
2022/09/07 08:14:41;;;;;;;3.50;3.10;;;25.30;74.80;;;;;;5039057;28;20573;-73
2022/09/07 08:17:10;;;;;;;3.10;2.90;;;25.30;74.50;;;;;;5051508;28;20586;-76
2022/09/07 08:19:38;;;;;;;4.23;3.30;;;25.40;74.30;;;;;;5051921;28;20549;-77
2022/09/07 08:22:07;;;;;;;3.40;3.20;;;25.40;74.00;;;;;;5051099;28;20450;-75
2022/09/07 08:24:36;;;;;;;3.80;3.57;;;25.50;74.00;;;;;;5051435;28;20448;-75
2022/09/07 08:27:04;;;;;;;3.67;3.37;;;25.50;73.90;;;;;;5051905;28;20495;-75
2022/09/07 08:29:32;;;;;;;4.90;3.50;;;25.60;73.90;;;;;;5051936;28;20478;-74
2022/09/07 08:32:06;;;;;;;3.90;3.60;;;25.60;73.70;;;;;;5050699;28;20474;-75
2022/09/07 08:34:36;;;;;;;4.00;3.37;;;25.60;73.40;;;;;;5050952;28;20456;-73
2022/09/07 08:37:04;;;;;;;3.90;3.10;;;25.70;73.40;;;;;;5049996;28;20464;-73
2022/09/07 08:39:32;;;;;;;3.90;3.43;;;25.70;73.10;;;;;;5049019;28;20461;-81
2022/09/07 08:42:33;;;;;;;3.37;3.10;;;25.70;73.10;;;;;;5047135;28;20471;-78
2022/09/07 08:45:06;;;;;;;4.07;3.20;;;25.80;73.10;;;;;;5041780;28;21047;-79
2022/09/07 08:47:41;;;;;;;4.00;3.70;;;25.80;73.10;;;;;;5047331;28;20455;-78
2022/09/07 08:50:13;;;;;;;3.97;3.57;;;25.80;73.20;;;;;;5049070;28;20515;-78
2022/09/07 08:52:50;;;;;;;4.57;3.70;;;25.80;73.20;;;;;;5046138;28;20466;-78
2022/09/07 08:55:25;;;;;;;4.03;3.23;;;25.90;73.30;;;;;;5043717;28;20462;-79
2022/09/07 08:58:02;;;;;;;4.10;3.10;;;25.90;73.30;;;;;;5048026;28;20555;-79
2022/09/07 09:00:31;;;;;;;4.07;3.70;;;25.90;73.20;;;;;;5047973;28;20455;-80
2022/09/07 09:03:01;;;;;;;3.63;3.40;;;26.00;73.20;;;;;;5046286;28;20445;-80
2022/09/07 09:06:01;;;;;;;4.07;3.53;;;26.00;73.20;;;;;;5048986;28;20826;-75
2022/09/07 09:08:46;;;;;;;4.00;3.60;;;26.10;73.50;;;;;;5044884;28;20962;-79
2022/09/07 09:11:22;;;;;;;4.03;3.03;;;26.10;73.00;;;;;;5050220;28;20476;-78
2022/09/07 09:14:00;;;;;;;3.80;3.50;;;26.10;72.90;;;;;;5048693;28;20951;-78
2022/09/07 09:16:35;;;;;;;3.53;3.23;;;26.10;73.00;;;;;;5051022;28;20488;-79
2022/09/07 09:19:20;;;;;;;4.10;3.70;;;26.10;73.10;;;;;;5044622;28;20478;-76
2022/09/07 09:21:48;;;;;;;3.70;2.90;;;26.20;72.80;;;;;;5044151;28;20457;-75
2022/09/07 09:24:18;;;;;;;4.00;3.60;;;26.30;72.90;;;;;;5043461;28;20457;-76
2022/09/07 09:26:51;;;;;;;4.13;3.73;;;26.30;72.90;;;;;;5048680;28;20507;-76
2022/09/07 09:29:21;;;;;;;3.93;3.50;;;26.30;72.80;;;;;;5050154;28;20459;-76
2022/09/07 09:31:49;;;;;;;3.53;3.10;;;26.40;72.80;;;;;;5046759;28;20468;-75
2022/09/07 09:34:20;;;;;;;4.70;3.30;;;26.40;72.70;;;;;;5044430;28;20460;-77
2022/09/07 09:36:56;;;;;;;3.73;3.43;;;26.40;72.50;;;;;;5048951;28;20459;-77
2022/09/07 09:39:30;;;;;;;3.50;3.20;;;26.50;72.00;;;;;;5050185;28;20508;-76
2022/09/07 09:42:13;;;;;;;4.63;3.33;;;26.50;72.00;;;;;;5051428;28;20457;-76
2022/09/07 09:44:42;;;;;;;3.30;3.00;;;26.50;71.80;;;;;;5050865;28;20442;-76
2022/09/07 09:47:25;;;;;;;4.80;4.00;;;26.50;71.80;;;;;;5043483;28;20476;-73
2022/09/07 09:50:01;;;;;;;5.10;4.13;;;26.50;71.50;;;;;;5045039;28;21051;-73
2022/09/07 09:52:33;;;;;;;4.13;3.00;;;26.50;71.40;;;;;;5049081;28;20596;-72
2022/09/07 09:55:23;;;;;;;3.50;3.20;;;26.50;71.30;;;;;;5038527;28;20468;-73
2022/09/07 09:58:04;;;;;;;3.60;2.70;;;26.50;71.40;;;;;;5050526;28;20468;-73
2022/09/07 10:00:57;;;;;;;4.40;3.10;;;26.60;71.10;;;;;;5049032;28;20466;-74
2022/09/07 10:03:45;;;;;;;3.60;3.30;;;26.60;71.20;;;;;;5042567;28;20483;-73
2022/09/07 10:06:22;;;;;;;2.37;2.17;;;26.60;71.00;;;;;;5079105;28;20452;-73
2022/09/07 10:08:56;;;;;;;3.20;3.00;;;26.60;70.80;;;;;;5053102;28;20979;-73
2022/09/07 10:11:43;;;;;;;4.80;2.90;;;26.60;70.70;;;;;;5052638;28;21016;-80
2022/09/07 10:14:34;;;;;;;5.10;3.10;;;26.60;70.90;;;;;;5047220;28;20491;-70
2022/09/07 10:17:11;;;;;;;3.13;2.80;;;26.70;70.80;;;;;;5052466;28;20989;-71
2022/09/07 10:19:41;;;;;;;3.50;3.20;;;26.70;70.70;;;;;;5048515;28;20461;-71
2022/09/07 10:22:25;;;;;;;6.87;3.60;;;26.70;70.90;;;;;;5052765;28;20456;-71
2022/09/07 10:24:53;;;;;;;3.10;2.80;;;26.70;70.90;;;;;;5046448;28;20468;-71
2022/09/07 10:27:30;;;;;;;7.10;3.10;;;26.70;70.60;;;;;;5048052;28;20488;-71
2022/09/07 10:29:59;;;;;;;3.30;3.00;;;26.80;70.70;;;;;;5045073;28;20458;-71
2022/09/07 10:32:45;;;;;;;4.27;3.40;;;26.80;70.60;;;;;;5050433;28;20473;-71
2022/09/07 10:35:19;;;;;;;3.20;2.90;;;26.80;70.50;;;;;;5052904;28;20453;-70
2022/09/07 10:37:57;;;;;;;3.67;3.37;;;26.80;70.30;;;;;;5054202;28;20447;-70
2022/09/07 10:40:31;;;;;;;3.40;3.03;;;26.80;70.30;;;;;;5048791;28;20458;-73
2022/09/07 10:43:11;;;;;;;6.17;4.23;;;26.90;70.10;;;;;;5050674;28;20489;-74
2022/09/07 10:46:19;;;;;;;6.00;4.20;;;26.90;70.00;;;;;;5051228;28;20461;-73
2022/09/07 10:49:20;;;;;;;4.37;3.30;;;26.90;70.00;;;;;;5050263;28;20456;-76
2022/09/07 10:51:59;;;;;;;5.47;4.07;;;26.90;69.80;;;;;;5042249;28;20482;-77
2022/09/07 10:54:38;;;;;;;3.97;3.67;;;27.00;70.00;;;;;;5051152;28;20454;-74
2022/09/07 10:57:26;;;;;;;5.50;4.07;;;27.10;70.00;;;;;;5037658;28;20480;-76
2022/09/07 11:00:03;;;;;;;3.00;2.80;;;27.20;69.70;;;;;;5047014;28;20497;-78
2022/09/07 11:02:54;;;;;;;3.93;3.50;;;27.20;69.60;;;;;;5045821;28;20473;-76
2022/09/07 11:05:55;;;;;;;5.23;3.60;;;27.40;69.30;;;;;;5045692;28;20457;-80
2022/09/07 11:08:33;;;;;;;5.30;3.50;;;27.60;68.90;;;;;;5045313;28;20460;-79
2022/09/07 11:11:27;;;;;;;4.50;3.43;;;27.80;68.50;;;;;;5046493;28;20570;-81
2022/09/07 11:14:19;;;;;;;4.17;3.77;;;28.20;67.60;;;;;;5048337;28;20853;-75
2022/09/07 11:16:52;;;;;;;3.67;3.17;;;28.50;67.00;;;;;;5045692;28;20480;-77
2022/09/07 11:19:26;;;;;;;3.63;3.33;;;28.70;66.50;;;;;;5049471;28;20462;-78
2022/09/07 11:22:15;;;;;;;3.47;3.17;;;28.90;66.00;;;;;;5050226;28;20908;-79
2022/09/07 11:24:49;;;;;;;3.43;2.80;;;29.20;65.40;;;;;;5047945;28;20473;-77
2022/09/07 11:27:44;;;;;;;3.47;2.80;;;29.30;64.90;;;;;;5051269;28;20875;-75
2022/09/07 11:30:20;;;;;;;4.50;3.40;;;29.50;64.60;;;;;;5053107;28;20468;-75
2022/09/07 11:32:58;;;;;;;3.60;3.17;;;29.70;64.10;;;;;;5035042;28;20860;-76
2022/09/07 11:35:44;;;;;;;4.80;3.00;;;29.90;63.60;;;;;;5053715;28;20442;-77
2022/09/07 11:38:25;;;;;;;3.50;3.20;;;30.00;63.30;;;;;;5053444;28;20449;-77
2022/09/07 11:41:06;;;;;;;3.87;2.50;;;30.30;62.70;;;;;;5043042;28;20941;-75
2022/09/07 11:43:42;;;;;;;3.10;2.77;;;30.30;62.60;;;;;;5048877;28;20449;-79
2022/09/07 11:46:15;;;;;;;3.77;3.37;;;30.30;62.60;;;;;;5049045;28;20460;-78
2022/09/07 11:48:47;;;;;;;3.27;2.97;;;30.30;62.60;;;;;;5051267;28;20510;-76
2022/09/07 11:51:21;;;;;;;3.33;3.13;;;30.30;62.90;;;;;;5048137;28;20473;-81
2022/09/07 11:53:53;;;;;;;3.70;3.17;;;30.30;62.60;;;;;;5049228;28;20461;-77
2022/09/07 11:56:29;;;;;;;3.10;2.80;;;30.20;62.60;;;;;;5043512;28;20533;-76
2022/09/07 11:59:42;;;;;;;3.70;2.97;;;30.00;63.10;;;;;;5047625;28;20535;-79
2022/09/07 12:02:38;;;;;;;3.57;3.10;;;30.00;63.40;;;;;;5031200;28;20463;-78
2022/09/07 12:05:41;;;;;;;5.43;3.13;;;30.10;63.20;;;;;;5049066;28;21011;-80
2022/09/07 12:08:25;;;;;;;8.43;3.83;;;30.30;63.00;;;;;;5041306;28;20454;-76
2022/09/07 12:11:10;;;;;;;3.60;3.30;;;30.50;62.60;;;;;;5043381;28;20512;-75
2022/09/07 12:13:58;;;;;;;6.70;3.00;;;30.50;62.40;;;;;;5040168;28;20452;-74
2022/09/07 12:16:40;;;;;;;2.90;2.60;;;30.40;62.60;;;;;;5041601;28;20476;-73
2022/09/07 12:19:27;;;;;;;3.20;2.90;;;30.40;62.80;;;;;;5044899;28;20453;-74
2022/09/07 12:21:58;;;;;;;4.70;2.60;;;30.60;62.40;;;;;;5042489;28;20467;-73
2022/09/07 12:24:40;;;;;;;4.73;2.67;;;30.80;62.00;;;;;;5046401;28;20456;-74
2022/09/07 12:27:11;;;;;;;4.73;2.53;;;31.00;61.50;;;;;;5043908;28;20845;-75
2022/09/07 12:29:39;;;;;;;3.27;2.97;;;31.20;61.10;;;;;;5047944;28;20459;-78
2022/09/07 12:32:34;;;;;;;3.63;3.33;;;31.40;60.90;;;;;;5051171;28;20474;-74
2022/09/07 12:35:39;;;;;;;3.20;2.90;;;31.40;60.70;;;;;;5045577;28;20468;-76
2022/09/07 12:38:51;;;;;;;3.60;3.27;;;31.50;60.50;;;;;;5043641;28;20452;-78
2022/09/07 12:41:25;;;;;;;2.90;2.70;;;31.50;60.50;;;;;;4989057;28;20459;-74
2022/09/07 12:44:07;;;;;;;4.50;3.13;;;31.60;60.50;;;;;;5035494;28;20462;-73
2022/09/07 12:46:45;;;;;;;2.90;2.70;;;31.60;60.60;;;;;;5047138;28;20821;-75
2022/09/07 12:49:55;;;;;;;3.30;2.67;;;31.60;60.60;;;;;;5047783;28;20977;-77
2022/09/07 12:52:55;;;;;;;5.30;3.30;;;31.60;60.70;;;;;;5047512;28;20486;-75
2022/09/07 12:55:48;;;;;;;3.77;3.43;;;31.60;60.80;;;;;;5041294;28;20635;-75
2022/09/07 12:58:45;;;;;;;2.97;2.40;;;31.50;60.90;;;;;;5048227;28;20460;-78
2022/09/07 13:01:36;;;;;;;3.47;2.60;;;31.30;61.30;;;;;;5046513;28;20455;-77
2022/09/07 13:04:33;;;;;;;3.40;2.77;;;31.10;61.70;;;;;;5045440;28;20470;-72
2022/09/07 13:07:33;;;;;;;3.13;2.50;;;30.90;62.20;;;;;;5046299;28;20452;-72
2022/09/07 13:10:03;;;;;;;2.93;2.30;;;30.90;62.40;;;;;;5042724;28;20455;-73
2022/09/07 13:12:37;;;;;;;3.97;2.80;;;30.90;62.50;;;;;;5037921;28;20478;-75
2022/09/07 13:15:40;;;;;;;2.60;2.40;;;30.90;62.50;;;;;;5047487;28;20479;-74
2022/09/07 13:18:39;;;;;;;3.77;2.83;;;30.90;62.60;;;;;;5041117;28;20832;-74